createdAt,value
2024-04-24T00:07:35.873Z,6.35
2024-04-24T00:17:41.163Z,5.63
2024-04-24T00:27:46.355Z,5.1
2024-04-24T00:37:51.713Z,5.94
2024-04-24T00:47:58.111Z,5.5
2024-04-24T00:58:12.484Z,5.58
2024-04-24T01:08:07.874Z,6.07
2024-04-24T01:18:13.223Z,6.49
2024-04-24T01:28:18.513Z,6.66
2024-04-24T01:38:23.888Z,5.36
2024-04-24T01:48:29.280Z,5.3
2024-04-24T01:58:34.543Z,5.37
2024-04-24T02:08:39.867Z,5.26
2024-04-24T02:18:45.142Z,5.93
2024-04-24T02:28:50.371Z,6.11
2024-04-24T02:38:55.627Z,6.34
2024-04-24T02:49:00.926Z,5.04
2024-04-24T02:59:06.238Z,4.54
2024-04-24T03:09:11.649Z,4.87
2024-04-24T03:19:16.940Z,4.76
2024-04-24T03:29:21.739Z,4.51
2024-04-24T03:39:26.146Z,4.94
2024-04-24T03:49:31.416Z,4.24
2024-04-24T03:59:36.668Z,3.72
2024-04-24T04:09:41.918Z,3.3
2024-04-24T04:19:48.129Z,2.82
2024-04-24T04:29:53.447Z,2.03
2024-04-24T04:39:59.066Z,4.8
2024-04-24T04:50:05.585Z,2.63
2024-04-24T05:00:10.870Z,2.65
2024-04-24T05:10:16.146Z,2.61
2024-04-24T05:20:21.459Z,2.46
2024-04-24T05:30:26.855Z,2.53
2024-04-24T05:40:32.151Z,2.63
2024-04-24T05:50:37.425Z,3.41
2024-04-24T06:00:44.061Z,2.29
2024-04-24T06:10:49.328Z,2.78
2024-04-24T06:20:55.866Z,2.42
2024-04-24T06:31:02.174Z,2.38
2024-04-24T06:41:11.018Z,2.5
2024-04-24T06:51:14.267Z,2.43
2024-04-24T07:01:19.607Z,2.26
2024-04-24T07:11:25.003Z,2.44
2024-04-24T07:21:30.248Z,2.15
2024-04-24T07:31:35.528Z,2.16
2024-04-24T07:41:42.891Z,2.54
2024-04-24T07:51:47.073Z,2.96
2024-04-24T08:01:52.365Z,2.46
2024-04-24T08:11:57.756Z,1.86
2024-04-24T08:22:02.982Z,2.27
2024-04-24T08:32:08.371Z,1.69
2024-04-24T08:42:13.624Z,2.12
2024-04-24T08:52:18.926Z,1.87
2024-04-24T09:02:24.318Z,3.05
2024-04-24T09:12:29.551Z,1.34
2024-04-24T09:22:35.283Z,1.61
2024-04-24T09:32:40.583Z,1.53
2024-04-24T09:42:45.798Z,1.6
2024-04-24T09:52:51.204Z,1.61
2024-04-24T10:02:56.579Z,1.69
2024-04-24T10:13:02.306Z,1.49
2024-04-24T10:23:07.809Z,1.07
2024-04-24T10:33:13.515Z,1.45
2024-04-24T10:43:18.756Z,1.49
2024-04-24T10:53:24.148Z,1.66
2024-04-24T11:03:35.767Z,1.51
2024-04-24T11:13:30.970Z,1.57
2024-04-24T11:23:36.491Z,1.75
2024-04-24T11:33:41.903Z,1.45
2024-04-24T11:43:47.099Z,1.48
2024-04-24T11:53:52.782Z,1.29
2024-04-24T12:03:58.167Z,1.42
2024-04-24T12:14:03.464Z,1.46
2024-04-24T12:24:10.066Z,1.69
2024-04-24T12:34:16.921Z,1.24
2024-04-24T12:44:24.558Z,1.34
2024-04-24T12:54:29.827Z,1.37
2024-04-24T13:04:35.597Z,1.27
2024-04-24T13:14:40.893Z,1.63
2024-04-24T13:24:46.199Z,1.44
2024-04-24T13:34:51.607Z,1.29
2024-04-24T13:44:56.981Z,1.34
2024-04-24T13:55:02.225Z,1.16
2024-04-24T14:05:09.901Z,1.32
2024-04-24T14:15:15.192Z,1.14
2024-04-24T14:25:20.457Z,1.07
2024-04-24T14:35:26.138Z,1.09
2024-04-24T14:45:31.453Z,1.26
2024-04-24T14:55:38.364Z,1.16
2024-04-24T15:05:41.922Z,1.51
2024-04-24T15:15:47.241Z,1.23
2024-04-24T15:25:55.304Z,1.04
2024-04-24T15:36:00.630Z,1.21
2024-04-24T15:46:09.734Z,1.19
2024-04-24T15:56:15.086Z,1.68
2024-04-24T16:06:20.433Z,1.63
2024-04-24T16:16:25.807Z,1.67
2024-04-24T16:26:31.289Z,1.41
2024-04-24T16:36:36.511Z,1.54
2024-04-24T16:46:41.915Z,1.26
2024-04-24T16:56:48.367Z,1.48
2024-04-24T17:06:54.028Z,1.42
2024-04-24T17:16:59.633Z,1.23
2024-04-24T17:27:06.128Z,1.66
2024-04-24T17:37:11.735Z,1.51
2024-04-24T17:47:17.093Z,1.43
2024-04-24T17:57:22.465Z,1.46
2024-04-24T18:07:27.819Z,1.49
2024-04-24T18:17:33.115Z,1.82
2024-04-24T18:27:39.190Z,2.04
2024-04-24T18:37:44.657Z,1.72
2024-04-24T18:47:50.781Z,1.8
2024-04-24T18:57:56.078Z,1.73
2024-04-24T19:08:01.387Z,2.21
2024-04-24T19:18:06.812Z,1.52
2024-04-24T19:28:13.542Z,1.89
2024-04-24T19:38:20.319Z,2.2
2024-04-24T19:48:25.791Z,2.3
2024-04-24T19:58:31.362Z,2.35
2024-04-24T20:08:36.850Z,2.07
2024-04-24T20:18:41.784Z,2.49
2024-04-24T20:28:47.131Z,2.65
2024-04-24T20:38:52.450Z,2.85
2024-04-24T20:48:58.310Z,3
2024-04-24T20:59:03.633Z,2.52
2024-04-24T21:09:12.632Z,3.08
2024-04-24T21:19:21.284Z,2.45
2024-04-24T21:29:26.672Z,3.55
2024-04-24T21:39:31.972Z,3.24
2024-04-24T21:49:37.292Z,4.16
2024-04-24T21:59:44.664Z,4.68
2024-04-24T22:09:50.085Z,4.38
2024-04-24T22:20:03.917Z,4.31
2024-04-24T22:29:59.207Z,4.37
2024-04-24T22:40:09.555Z,4.04
2024-04-24T23:00:12.102Z,4.21
2024-04-24T23:20:09.701Z,4.14
2024-04-24T23:30:15.005Z,3.88
2024-04-24T23:40:20.261Z,3.94
2024-04-24T23:50:25.678Z,3.63
